Terminal Aerodrome Forecast
Issued by NWS Charleston, WV

Home | Current Version | Previous Version | Text Only | Print | Product List | Glossary On
Versions: 1 2 3 4 5 6 7 8 9 10 11 12 13 14 15 16 17 18 19 20 21 22 23 24 25 26 27 28 29
000
FTUS41 KRLX 231100
TAFEKN
TAF
KEKN 231133Z 2312/2412 23004KT 6SM BR VCSH BKN040
      TEMPO 2312/2314 4SM SHRA BKN030
     FM231400 24007KT 6SM HZ BKN035
     FM231700 24009KT P6SM VCTS BKN035CB
     FM232000 28011G17KT P6SM VCTS BKN035CB
     FM232200 28010G15KT 4SM TSRA BR BKN030CB
     FM232300 27008KT 4SM TSRA BR BKN025CB
     FM240100 30003KT 4SM SHRA BR BKN020
     FM240500 VRB03KT 4SM -SHRA BR OVC016
     FM241100 31003KT 6SM BR OVC016=

USA.gov is the U.S. government's official web portal to all federal, state and local government web resources and services.